Terminal Aerodrome Forecast
Issued by NWS Twin Cities, MN

Home | Current Version | Previous Version | Text Only | Print | Product List | Glossary On
Versions: 1 2 3 4 5 6 7 8 9 10 11 12 13 14 15 16 17 18 19 20
000
FTUS43 KMPX 231700
TAFSTC
TAF
KSTC 231720Z 2318/2418 36006KT P6SM SCT050 SCT200
     FM240200 VRB02KT P6SM SKC
     FM240900 00000KT 5SM BR FEW250
     FM241200 14005KT P6SM SCT200=

USA.gov is the U.S. government's official web portal to all federal, state and local government web resources and services.